Time;durP1;ratioP1;P1;durP2;ratioP2;P2;SDS_P1;SDS_P2;PMS_P1;PMS_P2;Temp;Humidity;BMP_temperature;BMP_pressure;BME280_temperature;BME280_humidity;BME280_pressure;Samples;Min_cycle;Max_cycle;Signal;HPM_P1;HPM_P2
2022/12/01 00:01:44;;;;;;;29.43;18.10;;;;;;;7.60;100.00;99880.09;5088822;28;20219;-80
2022/12/01 00:04:13;;;;;;;33.03;17.90;;;;;;;7.54;100.00;99872.47;5091346;28;20211;-81
2022/12/01 00:06:41;;;;;;;31.00;17.13;;;;;;;7.62;100.00;99879.13;5091845;28;20260;-80
2022/12/01 00:11:57;;;;;;;33.00;18.73;;;;;;;7.57;100.00;99860.00;5091010;28;20604;-80
2022/12/01 00:14:26;;;;;;;32.37;18.63;;;;;;;7.61;100.00;99860.72;5091909;28;20195;-80
2022/12/01 00:16:55;;;;;;;35.07;18.77;;;;;;;7.49;100.00;99864.72;5092893;28;20184;-80
2022/12/01 00:19:25;;;;;;;33.63;19.07;;;;;;;7.61;100.00;99858.09;5095711;28;20238;-80
2022/12/01 00:22:00;;;;;;;33.67;19.87;;;;;;;7.48;100.00;99857.75;5029967;28;20261;-80
2022/12/01 00:24:28;;;;;;;31.17;18.57;;;;;;;7.41;100.00;99854.47;5033460;28;20304;-79
2022/12/01 00:27:01;;;;;;;36.03;19.07;;;;;;;7.40;100.00;99867.72;5032117;28;20193;-80
2022/12/01 00:29:30;;;;;;;32.10;18.93;;;;;;;7.42;100.00;99861.47;5028547;28;20273;-80
2022/12/01 00:31:59;;;;;;;35.47;20.40;;;;;;;7.36;100.00;99858.22;5026733;28;20190;-80
2022/12/01 00:34:29;;;;;;;34.90;19.17;;;;;;;7.32;100.00;99862.75;5024249;28;20277;-80
2022/12/01 00:36:58;;;;;;;34.07;19.17;;;;;;;7.33;100.00;99864.47;4949064;28;20239;-80
2022/12/01 00:39:26;;;;;;;35.67;19.43;;;;;;;7.37;100.00;99868.72;4951908;28;20273;-80
2022/12/01 00:41:55;;;;;;;37.90;20.37;;;;;;;7.37;100.00;99871.34;4969927;28;20226;-81
2022/12/01 00:44:26;;;;;;;35.57;19.50;;;;;;;7.53;100.00;99878.63;5026974;28;20205;-81
2022/12/01 00:46:54;;;;;;;35.80;19.70;;;;;;;7.35;100.00;99880.25;5033461;28;20199;-81
2022/12/01 00:49:22;;;;;;;35.03;19.77;;;;;;;7.38;100.00;99883.59;5028766;28;20265;-81
2022/12/01 00:51:51;;;;;;;37.03;20.43;;;;;;;7.30;100.00;99883.03;5029049;28;20202;-80
2022/12/01 00:54:20;;;;;;;40.43;21.10;;;;;;;7.26;100.00;99885.88;5037418;28;20195;-79
2022/12/01 00:56:51;;;;;;;35.43;20.37;;;;;;;7.24;100.00;99879.78;5095159;27;20188;-79
2022/12/01 00:59:19;;;;;;;36.80;22.07;;;;;;;7.28;100.00;99882.25;5089302;28;20694;-80
2022/12/01 01:01:49;;;;;;;37.03;20.47;;;;;;;7.30;100.00;99880.41;5097669;27;20246;-80
2022/12/01 01:04:20;;;;;;;39.30;20.77;;;;;;;7.33;100.00;99885.53;5090847;28;20199;-80
2022/12/01 01:06:49;;;;;;;36.50;19.67;;;;;;;7.41;100.00;99880.84;5094751;28;20212;-80
2022/12/01 01:09:17;;;;;;;38.53;20.20;;;;;;;7.39;100.00;99884.47;5094783;28;20202;-80
2022/12/01 01:11:48;;;;;;;37.10;19.33;;;;;;;7.49;100.00;99887.59;5090780;28;20192;-80
2022/12/01 01:14:17;;;;;;;37.73;20.10;;;;;;;7.49;100.00;99892.84;5093903;28;20203;-80
2022/12/01 01:16:46;;;;;;;36.93;19.93;;;;;;;7.64;100.00;99897.53;5093718;28;20195;-80
2022/12/01 01:19:16;;;;;;;36.47;20.20;;;;;;;7.64;100.00;99887.00;5095060;28;20241;-80
2022/12/01 01:21:46;;;;;;;36.77;20.03;;;;;;;7.66;100.00;99888.63;5085252;28;20215;-80
2022/12/01 01:24:15;;;;;;;33.90;18.87;;;;;;;7.55;100.00;99893.50;5086835;28;20196;-80
2022/12/01 01:26:45;;;;;;;35.90;19.73;;;;;;;7.58;100.00;99893.34;5078998;28;20195;-79
2022/12/01 01:29:14;;;;;;;33.27;18.70;;;;;;;7.65;100.00;99889.56;5091671;28;20210;-80
2022/12/01 01:31:42;;;;;;;37.07;19.93;;;;;;;7.52;100.00;99880.41;5089096;28;20191;-80
2022/12/01 01:34:11;;;;;;;36.13;21.00;;;;;;;7.38;100.00;99890.66;5086297;28;20196;-80
2022/12/01 01:36:42;;;;;;;37.60;20.50;;;;;;;7.33;100.00;99885.53;5092189;28;20188;-80
2022/12/01 01:39:11;;;;;;;38.73;21.03;;;;;;;7.29;100.00;99891.88;5086494;28;20257;-80
2022/12/01 01:41:40;;;;;;;40.77;21.37;;;;;;;7.25;100.00;99882.38;5089698;28;20207;-80
2022/12/01 01:44:41;;;;;;;36.23;20.27;;;;;;;7.25;100.00;99895.53;5096822;27;20244;-79
2022/12/01 01:47:10;;;;;;;39.47;21.20;;;;;;;7.33;100.00;99898.72;5094248;28;20194;-79
2022/12/01 01:49:39;;;;;;;38.00;20.77;;;;;;;7.38;100.00;99894.13;5051823;28;20232;-80
2022/12/01 01:52:11;;;;;;;38.10;21.03;;;;;;;7.27;100.00;99888.44;5048152;28;20205;-80
2022/12/01 01:54:46;;;;;;;44.33;21.47;;;;;;;7.28;100.00;99884.88;5044508;28;20192;-80
2022/12/01 01:57:20;;;;;;;36.70;20.10;;;;;;;7.30;100.00;99890.94;5050403;28;20208;-80
2022/12/01 01:59:53;;;;;;;41.47;21.93;;;;;;;7.32;100.00;99883.81;5031868;28;20202;-80
2022/12/01 02:02:21;;;;;;;37.17;21.03;;;;;;;7.29;100.00;99883.09;5024671;28;20244;-80
2022/12/01 02:04:54;;;;;;;37.40;21.13;;;;;;;7.40;100.00;99887.03;5023699;28;20726;-79
2022/12/01 02:07:25;;;;;;;38.10;21.20;;;;;;;7.29;100.00;99883.09;5044019;28;20212;-80
2022/12/01 02:09:56;;;;;;;36.27;20.63;;;;;;;7.24;100.00;99883.28;5068136;28;20286;-80
2022/12/01 02:12:53;;;;;;;36.73;20.13;;;;;;;7.27;100.00;99888.44;5062730;28;20655;-81
2022/12/01 02:15:34;;;;;;;37.70;21.47;;;;;;;7.11;100.00;99888.16;5026810;28;20192;-80
2022/12/01 02:18:13;;;;;;;37.37;20.23;;;;;;;7.23;100.00;99889.44;5076253;28;20199;-80
2022/12/01 02:21:14;;;;;;;39.77;22.90;;;;;;;7.13;100.00;99883.69;5086637;28;20203;-80
2022/12/01 02:24:12;;;;;;;38.27;21.30;;;;;;;7.20;100.00;99886.09;5093868;28;20222;-80
2022/12/01 02:26:50;;;;;;;37.87;21.07;;;;;;;7.29;100.00;99881.31;5067871;28;20602;-80
2022/12/01 02:29:41;;;;;;;35.37;20.67;;;;;;;7.21;100.00;99879.91;5093648;28;20195;-80
2022/12/01 02:32:18;;;;;;;40.43;22.00;;;;;;;7.22;100.00;99878.97;5092260;28;20196;-80
2022/12/01 02:34:56;;;;;;;38.20;21.63;;;;;;;7.18;100.00;99875.63;5084549;28;20195;-80
2022/12/01 02:37:32;;;;;;;37.27;22.23;;;;;;;7.01;100.00;99878.88;5093043;28;20195;-80
2022/12/01 02:40:09;;;;;;;36.97;21.67;;;;;;;7.12;100.00;99873.19;5092208;28;20298;-80
2022/12/01 02:42:50;;;;;;;39.27;23.03;;;;;;;7.03;100.00;99871.78;5073706;28;20208;-80
2022/12/01 02:45:25;;;;;;;39.27;22.43;;;;;;;6.92;100.00;99876.59;5092553;28;20223;-80
2022/12/01 02:47:59;;;;;;;38.67;21.77;;;;;;;7.02;100.00;99885.00;5093414;28;20198;-80
2022/12/01 02:50:31;;;;;;;37.73;22.47;;;;;;;7.15;100.00;99881.00;5093344;28;20637;-81
2022/12/01 02:53:07;;;;;;;40.20;23.73;;;;;;;6.98;100.00;99881.66;5092337;28;20200;-81
2022/12/01 02:55:37;;;;;;;38.93;22.90;;;;;;;6.90;100.00;99881.06;5070841;28;20200;-81
2022/12/01 02:58:14;;;;;;;37.83;22.53;;;;;;;6.94;100.00;99876.53;5067367;28;20208;-80
2022/12/01 03:01:07;;;;;;;38.37;23.17;;;;;;;7.03;100.00;99882.31;5073908;28;20196;-80
2022/12/01 03:03:59;;;;;;;41.60;24.00;;;;;;;6.98;100.00;99876.38;5072469;28;20240;-80
2022/12/01 03:06:41;;;;;;;42.70;24.03;;;;;;;6.92;100.00;99875.75;5070593;28;20227;-80
2022/12/01 03:09:20;;;;;;;42.10;23.73;;;;;;;6.96;100.00;99877.34;5066043;28;20221;-80
2022/12/01 03:12:03;;;;;;;44.70;24.37;;;;;;;7.06;100.00;99869.03;5060895;28;20211;-80
2022/12/01 03:14:39;;;;;;;45.00;23.87;;;;;;;6.84;100.00;99873.38;5086761;28;20187;-80
2022/12/01 03:17:12;;;;;;;43.00;25.77;;;;;;;6.82;100.00;99869.97;5091991;28;20619;-80
2022/12/01 03:19:47;;;;;;;40.63;24.20;;;;;;;6.87;100.00;99865.41;5090187;28;20192;-80
2022/12/01 03:22:24;;;;;;;42.90;25.03;;;;;;;6.94;100.00;99869.50;5089942;28;20223;-80
2022/12/01 03:24:56;;;;;;;44.17;25.10;;;;;;;6.76;100.00;99865.78;5059167;28;20206;-80
2022/12/01 03:27:33;;;;;;;45.50;24.83;;;;;;;6.81;100.00;99863.84;5089040;28;20199;-80
2022/12/01 03:30:03;;;;;;;44.27;24.37;;;;;;;6.68;100.00;99864.34;5092583;28;20195;-80
2022/12/01 03:32:38;;;;;;;45.23;25.30;;;;;;;6.70;100.00;99865.16;5057211;28;20192;-80
2022/12/01 03:35:15;;;;;;;48.60;27.60;;;;;;;6.59;100.00;99866.41;5071439;28;20195;-80
2022/12/01 03:37:59;;;;;;;50.03;25.57;;;;;;;6.59;100.00;99865.56;5092582;28;20269;-79
2022/12/01 03:40:33;;;;;;;46.97;27.27;;;;;;;6.60;100.00;99860.22;5090948;28;20638;-80
2022/12/01 03:43:06;;;;;;;47.27;26.77;;;;;;;6.64;100.00;99858.31;5088143;28;20219;-80
2022/12/01 03:45:46;;;;;;;45.80;25.77;;;;;;;6.68;100.00;99852.06;5091111;28;20265;-80
2022/12/01 03:48:15;;;;;;;48.77;26.47;;;;;;;6.58;100.00;99848.03;5091033;28;20347;-80
2022/12/01 03:50:54;;;;;;;45.70;26.00;;;;;;;6.54;100.00;99851.69;5091159;28;20212;-80
2022/12/01 03:53:27;;;;;;;46.90;26.63;;;;;;;6.57;100.00;99848.97;5098670;27;20218;-80
2022/12/01 03:56:02;;;;;;;52.90;27.63;;;;;;;6.51;100.00;99863.19;5091589;28;20207;-80
2022/12/01 03:58:35;;;;;;;47.40;25.70;;;;;;;6.58;100.00;99859.44;5090745;28;20203;-80
2022/12/01 04:01:05;;;;;;;54.00;27.47;;;;;;;6.54;100.00;99852.53;5096230;28;20240;-80
2022/12/01 04:03:34;;;;;;;47.80;26.70;;;;;;;6.64;100.00;99857.47;5095199;28;20222;-80
2022/12/01 04:06:05;;;;;;;52.10;27.53;;;;;;;6.67;100.00;99865.28;5096198;28;20280;-80
2022/12/01 04:08:36;;;;;;;47.20;24.83;;;;;;;6.62;100.00;99864.56;5096430;28;20222;-80
2022/12/01 04:12:28;;;;;;;50.27;26.33;;;;;;;6.70;100.00;99865.16;5091906;28;20188;-80
2022/12/01 04:13:58;;;;;;;48.63;26.77;;;;;;;6.68;100.00;99872.25;5096294;28;20198;-80
2022/12/01 04:16:28;;;;;;;48.90;26.17;;;;;;;6.60;100.00;99867.25;5098571;27;20200;-81
2022/12/01 04:18:57;;;;;;;47.40;26.23;;;;;;;6.65;100.00;99870.56;5093877;28;20227;-80
2022/12/01 04:21:27;;;;;;;46.73;26.57;;;;;;;6.68;100.00;99869.63;5092080;28;20203;-80
2022/12/01 04:24:01;;;;;;;48.80;26.00;;;;;;;6.79;100.00;99864.81;5095968;28;20216;-79
2022/12/01 04:26:32;;;;;;;46.70;26.43;;;;;;;6.76;100.00;99865.78;5059865;28;20203;-80
2022/12/01 04:29:02;;;;;;;45.57;25.77;;;;;;;6.68;100.00;99867.00;5094548;28;20203;-80
2022/12/01 04:31:31;;;;;;;45.10;26.03;;;;;;;6.78;100.00;99860.47;5095867;28;20196;-80
2022/12/01 04:34:00;;;;;;;50.27;26.70;;;;;;;6.49;100.00;99859.75;5095665;28;20278;-80
2022/12/01 04:36:34;;;;;;;48.57;27.53;;;;;;;6.53;100.00;99864.00;5095340;28;20188;-80
2022/12/01 04:39:03;;;;;;;47.73;26.73;;;;;;;6.43;100.00;99861.75;5095697;28;20187;-80
2022/12/01 04:41:32;;;;;;;47.70;25.40;;;;;;;6.58;100.00;99866.47;5092069;28;20192;-80
2022/12/01 04:44:00;;;;;;;47.97;25.30;;;;;;;6.55;100.00;99859.53;5096645;27;20268;-80
2022/12/01 04:46:29;;;;;;;46.60;25.47;;;;;;;6.54;100.00;99860.44;5092370;28;20196;-80
2022/12/01 04:48:57;;;;;;;46.67;26.13;;;;;;;6.55;100.00;99858.66;5095377;28;20196;-80
2022/12/01 04:51:26;;;;;;;45.70;24.37;;;;;;;6.67;100.00;99858.25;5087734;28;20203;-79
2022/12/01 04:53:58;;;;;;;48.10;26.33;;;;;;;6.67;100.00;99860.88;5092939;28;20196;-79
2022/12/01 04:56:29;;;;;;;46.30;26.23;;;;;;;6.63;100.00;99853.13;5093581;28;20196;-80
2022/12/01 04:58:58;;;;;;;48.80;27.77;;;;;;;6.60;100.00;99857.59;5091424;28;20195;-80
2022/12/01 05:01:27;;;;;;;47.17;26.40;;;;;;;6.69;100.00;99860.81;5092337;28;20191;-80
2022/12/01 05:03:56;;;;;;;45.80;25.10;;;;;;;6.61;100.00;99858.44;5089748;28;20215;-80
2022/12/01 05:06:26;;;;;;;49.97;26.60;;;;;;;6.55;100.00;99856.88;5094150;28;20219;-80
2022/12/01 05:08:58;;;;;;;46.63;25.30;;;;;;;6.54;100.00;99857.81;5095141;28;20195;-80
2022/12/01 05:11:29;;;;;;;46.93;25.87;;;;;;;6.42;100.00;99865.28;5094221;28;20192;-80
2022/12/01 05:13:57;;;;;;;48.93;26.43;;;;;;;6.43;100.00;99864.38;5096465;27;20192;-80
2022/12/01 05:16:28;;;;;;;46.80;26.30;;;;;;;6.43;100.00;99867.00;5098290;28;20188;-80
2022/12/01 05:21:40;;;;;;;49.50;25.97;;;;;;;6.60;100.00;99864.63;5094415;28;20198;-80
2022/12/01 05:24:11;;;;;;;45.83;24.63;;;;;;;6.61;100.00;99868.97;5093466;28;20269;-81
2022/12/01 05:26:41;;;;;;;43.50;23.90;;;;;;;6.52;100.00;99870.16;5089037;28;20261;-80
2022/12/01 05:29:10;;;;;;;47.23;26.07;;;;;;;6.50;100.00;99871.16;5090080;28;20191;-80
2022/12/01 05:31:39;;;;;;;46.27;25.43;;;;;;;6.42;100.00;99868.78;5094802;28;20260;-80
2022/12/01 05:34:07;;;;;;;45.83;25.50;;;;;;;6.43;100.00;99867.00;5032158;28;20292;-80
2022/12/01 05:36:41;;;;;;;47.93;25.93;;;;;;;6.30;100.00;99870.06;4980124;28;20193;-80
2022/12/01 05:39:11;;;;;;;43.50;25.13;;;;;;;6.43;100.00;99870.50;5026533;28;20198;-80
2022/12/01 05:41:40;;;;;;;45.30;26.13;;;;;;;6.33;100.00;99866.47;4929312;29;20244;-80
2022/12/01 05:44:08;;;;;;;43.40;24.83;;;;;;;6.51;100.00;99868.47;4925473;29;20251;-80
2022/12/01 05:46:36;;;;;;;46.27;25.50;;;;;;;6.45;100.00;99867.81;4893665;29;20206;-80
2022/12/01 05:49:06;;;;;;;46.93;25.40;;;;;;;6.46;100.00;99869.53;4894393;29;20209;-80
2022/12/01 05:51:34;;;;;;;52.17;27.80;;;;;;;6.34;100.00;99868.19;4908034;28;20235;-80
2022/12/01 05:54:03;;;;;;;43.67;25.23;;;;;;;6.36;100.00;99869.00;4969857;28;20336;-80
2022/12/01 05:56:34;;;;;;;43.87;26.13;;;;;;;6.45;100.00;99870.44;4968229;28;20208;-80
2022/12/01 05:59:03;;;;;;;49.47;26.63;;;;;;;6.37;100.00;99869.84;4983493;28;20262;-80
2022/12/01 06:01:31;;;;;;;46.47;26.53;;;;;;;6.34;100.00;99867.34;5063824;28;20196;-79
2022/12/01 06:04:03;;;;;;;44.00;25.47;;;;;;;6.35;100.00;99875.16;5074236;28;20224;-80
2022/12/01 06:06:32;;;;;;;47.80;26.87;;;;;;;6.26;100.00;99867.59;5028838;28;20221;-80
2022/12/01 06:09:05;;;;;;;42.13;25.07;;;;;;;6.27;100.00;99878.09;5025763;28;20217;-80
2022/12/01 06:11:36;;;;;;;48.23;25.23;;;;;;;6.44;100.00;99880.09;4982942;28;20195;-80
2022/12/01 06:14:07;;;;;;;43.10;24.30;;;;;;;6.55;100.00;99882.34;4957168;28;20203;-80
2022/12/01 06:16:36;;;;;;;43.77;24.77;;;;;;;6.60;100.00;99883.91;4984677;28;20623;-80
2022/12/01 06:19:04;;;;;;;44.60;24.67;;;;;;;6.32;100.00;99886.66;4984856;28;20226;-80
2022/12/01 06:21:32;;;;;;;44.33;23.80;;;;;;;6.41;100.00;99885.47;4987317;28;20235;-80
2022/12/01 06:24:01;;;;;;;43.20;24.00;;;;;;;6.42;100.00;99887.19;4995585;28;20291;-79
2022/12/01 06:26:30;;;;;;;41.50;23.27;;;;;;;6.43;100.00;99891.53;5045794;28;20189;-81
2022/12/01 06:29:00;;;;;;;44.33;23.80;;;;;;;6.38;100.00;99890.00;5047307;28;20212;-80
2022/12/01 06:31:29;;;;;;;43.13;24.40;;;;;;;6.19;100.00;99888.00;5045345;28;20670;-80
2022/12/01 06:33:57;;;;;;;41.63;23.70;;;;;;;6.35;100.00;99888.31;5044819;28;20239;-80
2022/12/01 06:36:26;;;;;;;44.27;23.97;;;;;;;6.31;100.00;99884.94;4984762;28;20196;-80
2022/12/01 06:38:54;;;;;;;43.00;23.70;;;;;;;6.22;100.00;99893.16;4970089;28;20203;-80
2022/12/01 06:41:22;;;;;;;41.67;23.80;;;;;;;6.18;100.00;99888.06;4972250;28;20224;-80
2022/12/01 06:43:51;;;;;;;46.53;24.57;;;;;;;6.17;100.00;99889.81;5022810;28;20708;-80
2022/12/01 06:46:21;;;;;;;40.47;23.50;;;;;;;6.25;100.00;99900.06;5026269;28;20259;-80
2022/12/01 06:48:49;;;;;;;39.73;22.67;;;;;;;6.07;100.00;99901.56;5028403;28;20273;-80
2022/12/01 06:51:18;;;;;;;40.63;23.23;;;;;;;6.01;100.00;99909.66;5024518;28;20205;-80
2022/12/01 06:53:46;;;;;;;40.33;22.33;;;;;;;6.00;100.00;99905.31;5027725;28;20379;-80
2022/12/01 06:56:17;;;;;;;39.67;22.53;;;;;;;5.96;100.00;99911.56;5030927;28;20239;-81
2022/12/01 06:58:46;;;;;;;42.60;22.00;;;;;;;5.88;100.00;99911.78;5023359;28;20282;-80
2022/12/01 07:01:15;;;;;;;40.53;22.07;;;;;;;6.03;100.00;99913.97;5023920;28;20235;-81
2022/12/01 07:03:49;;;;;;;41.57;23.97;;;;;;;5.85;100.00;99917.16;5046687;28;20229;-80
2022/12/01 07:06:18;;;;;;;37.33;21.30;;;;;;;6.17;100.00;99917.88;5050351;28;20217;-80
2022/12/01 07:08:49;;;;;;;41.20;22.30;;;;;;;5.95;100.00;99918.59;5042437;28;20209;-80
2022/12/01 07:11:17;;;;;;;38.97;22.87;;;;;;;5.85;100.00;99925.03;5044167;28;20201;-80
2022/12/01 07:13:45;;;;;;;37.90;22.40;;;;;;;6.05;100.00;99923.56;5043082;28;20193;-80
2022/12/01 07:16:14;;;;;;;39.17;22.73;;;;;;;5.96;100.00;99927.34;5045037;28;20200;-80
2022/12/01 07:18:43;;;;;;;36.50;20.97;;;;;;;6.02;100.00;99925.38;5051842;28;20199;-80
2022/12/01 07:21:17;;;;;;;36.60;20.17;;;;;;;6.10;100.00;99927.78;5082846;28;20211;-81
2022/12/01 07:23:45;;;;;;;36.90;21.03;;;;;;;5.88;100.00;99945.97;5028165;28;20205;-80
2022/12/01 07:26:17;;;;;;;33.87;19.50;;;;;;;5.81;100.00;99941.84;5024502;28;20220;-80
2022/12/01 07:28:48;;;;;;;35.47;20.53;;;;;;;5.90;100.00;99938.06;5029426;28;20197;-80
2022/12/01 07:31:18;;;;;;;33.23;19.13;;;;;;;5.90;100.00;99943.31;5008152;28;20222;-80
2022/12/01 07:33:47;;;;;;;32.93;19.63;;;;;;;5.68;100.00;99936.09;5005462;28;20213;-80
2022/12/01 07:36:19;;;;;;;31.20;19.03;;;;;;;5.68;100.00;99946.59;5010524;28;20206;-80
2022/12/01 07:38:49;;;;;;;31.87;19.10;;;;;;;5.47;100.00;99944.66;5006239;28;20229;-80
2022/12/01 07:41:20;;;;;;;30.90;19.33;;;;;;;5.57;100.00;99937.34;5018300;28;20194;-80
2022/12/01 07:43:49;;;;;;;28.93;17.80;;;;;;;5.56;100.00;99938.25;5066819;28;20189;-80
2022/12/01 07:46:19;;;;;;;30.90;18.30;;;;;;;5.40;100.00;99945.72;5064192;28;20216;-80
2022/12/01 07:48:51;;;;;;;30.83;18.57;;;;;;;5.42;100.00;99939.53;5072043;28;20199;-80
2022/12/01 07:51:25;;;;;;;32.63;19.37;;;;;;;5.51;100.00;99935.78;5091243;28;20192;-80
2022/12/01 07:53:54;;;;;;;31.73;18.13;;;;;;;5.50;100.00;99936.69;5094904;28;20188;-80
2022/12/01 07:56:24;;;;;;;31.73;18.33;;;;;;;5.52;100.00;99945.38;5090532;28;20264;-80
2022/12/01 07:58:52;;;;;;;29.53;18.03;;;;;;;5.56;100.00;99946.13;5084526;28;20268;-80
2022/12/01 08:01:25;;;;;;;29.70;17.73;;;;;;;5.53;100.00;99944.47;5089082;28;20283;-80
2022/12/01 08:03:58;;;;;;;26.57;16.93;;;;;;;5.41;100.00;99945.72;5091206;28;20188;-80
2022/12/01 08:06:30;;;;;;;29.57;17.00;;;;;;;5.34;100.00;99948.56;5092472;28;20228;-80
2022/12/01 08:08:58;;;;;;;25.27;16.33;;;;;;;5.43;100.00;99951.78;5091422;28;20203;-81
2022/12/01 08:11:29;;;;;;;28.93;17.37;;;;;;;5.37;100.00;99949.31;5045979;28;20190;-80
2022/12/01 08:13:58;;;;;;;28.57;18.03;;;;;;;5.49;100.00;99944.59;5045192;28;20208;-80
2022/12/01 08:16:31;;;;;;;30.60;18.20;;;;;;;5.32;100.00;99953.88;5047597;28;20204;-80
2022/12/01 08:18:59;;;;;;;27.63;18.07;;;;;;;5.42;100.00;99954.44;5048536;28;20690;-79
2022/12/01 08:21:29;;;;;;;27.67;16.97;;;;;;;5.60;100.00;99953.03;5049694;28;20193;-80
2022/12/01 08:23:58;;;;;;;24.50;15.93;;;;;;;5.64;100.00;99954.66;5042064;28;20201;-80
2022/12/01 08:26:27;;;;;;;26.00;16.60;;;;;;;5.37;100.00;99964.22;5045484;28;20271;-80
2022/12/01 08:28:58;;;;;;;28.90;17.73;;;;;;;5.33;100.00;99965.22;5054449;28;20196;-80
2022/12/01 08:31:28;;;;;;;25.60;15.30;;;;;;;5.37;100.00;99964.22;5086456;28;20196;-80
2022/12/01 08:33:58;;;;;;;22.67;14.87;;;;;;;5.29;100.00;99966.22;5088832;28;20200;-80
2022/12/01 08:36:28;;;;;;;26.30;16.17;;;;;;;5.30;100.00;99970.56;4988682;28;20275;-80
2022/12/01 08:38:57;;;;;;;23.87;16.07;;;;;;;5.29;100.00;99967.06;4991287;28;20214;-80
2022/12/01 08:41:27;;;;;;;23.70;15.57;;;;;;;5.22;100.00;99972.56;4988016;28;20203;-80
2022/12/01 08:43:57;;;;;;;23.60;15.07;;;;;;;5.24;100.00;99965.50;4989005;28;20199;-80
2022/12/01 08:46:32;;;;;;;27.90;16.27;;;;;;;5.25;100.00;99968.06;4988075;28;20215;-80
2022/12/01 08:49:01;;;;;;;24.87;15.80;;;;;;;5.33;100.00;99973.13;4964778;28;20299;-80
2022/12/01 08:51:31;;;;;;;24.93;15.37;;;;;;;5.40;100.00;99967.63;4992887;28;20191;-80
2022/12/01 08:54:00;;;;;;;24.63;16.37;;;;;;;5.23;100.00;99966.41;5005930;28;20201;-80
2022/12/01 08:56:31;;;;;;;24.77;16.10;;;;;;;5.30;100.00;99963.53;5047086;28;20228;-80
2022/12/01 08:59:00;;;;;;;25.47;15.93;;;;;;;5.33;100.00;99965.22;5052134;28;20252;-80
2022/12/01 09:01:31;;;;;;;26.37;15.43;;;;;;;5.45;100.00;99967.47;5077193;28;20261;-80
2022/12/01 09:04:07;;;;;;;25.27;16.10;;;;;;;5.17;100.00;99968.28;5091719;28;20184;-80
2022/12/01 09:06:42;;;;;;;22.17;14.63;;;;;;;5.38;100.00;99973.81;5095223;28;20227;-80
2022/12/01 09:09:13;;;;;;;23.63;15.53;;;;;;;5.53;100.00;99969.88;5095388;28;20198;-80
2022/12/01 09:11:43;;;;;;;24.57;15.67;;;;;;;5.54;100.00;99969.84;5094595;28;20203;-80
2022/12/01 09:14:12;;;;;;;23.90;14.97;;;;;;;5.50;100.00;99970.84;5095348;28;20198;-81
2022/12/01 09:16:42;;;;;;;23.73;14.73;;;;;;;5.54;100.00;99975.09;5094213;28;20261;-80
2022/12/01 09:19:11;;;;;;;23.67;14.77;;;;;;;5.44;100.00;99978.91;5093577;28;20199;-80
2022/12/01 09:21:44;;;;;;;21.67;14.97;;;;;;;5.47;100.00;99982.28;5093349;28;20356;-80
2022/12/01 09:24:15;;;;;;;24.43;15.70;;;;;;;5.33;100.00;99973.97;5092595;28;20200;-79
2022/12/01 09:26:46;;;;;;;23.17;15.87;;;;;;;5.59;100.00;99974.94;5093771;28;20272;-80
2022/12/01 09:29:16;;;;;;;21.93;14.63;;;;;;;5.36;100.00;99973.00;5092604;28;20191;-80
2022/12/01 09:31:45;;;;;;;25.43;16.13;;;;;;;5.56;100.00;99980.28;5095357;28;20207;-80
2022/12/01 09:34:19;;;;;;;30.17;19.10;;;;;;;5.36;100.00;99976.50;5092128;28;20199;-80
2022/12/01 09:36:49;;;;;;;26.37;16.33;;;;;;;5.39;100.00;99971.13;5097213;27;20195;-80
2022/12/01 09:39:20;;;;;;;26.93;15.57;;;;;;;5.38;100.00;99976.44;5093060;28;20184;-80
2022/12/01 09:41:54;;;;;;;25.77;16.30;;;;;;;5.44;100.00;99971.88;5093115;28;20229;-80
2022/12/01 09:44:33;;;;;;;24.87;16.70;;;;;;;5.33;100.00;99968.72;5094813;28;20249;-80
2022/12/01 09:47:10;;;;;;;26.87;17.33;;;;;;;5.42;100.00;99968.44;5090745;28;20217;-80
2022/12/01 09:49:46;;;;;;;29.13;17.67;;;;;;;5.51;100.00;99972.56;5094128;28;20198;-80
2022/12/01 09:52:19;;;;;;;27.20;17.50;;;;;;;5.48;100.00;99967.38;5092374;28;20191;-80
2022/12/01 09:54:50;;;;;;;25.10;16.37;;;;;;;5.54;100.00;99967.22;5089758;28;20324;-80
2022/12/01 09:57:28;;;;;;;25.23;15.07;;;;;;;5.72;100.00;99965.78;5091562;28;20627;-79
2022/12/01 09:59:58;;;;;;;28.90;18.23;;;;;;;5.57;100.00;99958.34;5091779;28;20256;-80
2022/12/01 10:02:34;;;;;;;25.87;16.53;;;;;;;5.64;100.00;99957.28;5090342;28;20215;-80
2022/12/01 10:05:05;;;;;;;25.80;15.87;;;;;;;5.73;100.00;99949.97;5093576;28;20264;-80
2022/12/01 10:07:40;;;;;;;27.07;17.20;;;;;;;5.66;100.00;99945.78;5097183;27;20215;-80
2022/12/01 10:10:14;;;;;;;32.03;21.33;;;;;;;5.77;100.00;99949.84;5095721;28;20278;-80
2022/12/01 10:12:46;;;;;;;31.53;20.23;;;;;;;5.45;100.00;99951.72;5093462;28;20217;-80
2022/12/01 10:15:24;;;;;;;28.73;17.90;;;;;;;5.32;100.00;99943.34;5093873;28;20240;-80
2022/12/01 10:18:03;;;;;;;27.70;17.63;;;;;;;5.29;100.00;99953.06;5088716;28;20261;-80
2022/12/01 10:20:41;;;;;;;26.37;17.23;;;;;;;5.49;100.00;99932.31;5093301;28;20188;-79
2022/12/01 10:23:35;;;;;;;27.40;16.60;;;;;;;5.56;100.00;99946.13;5088759;28;20188;-79
2022/12/01 10:26:13;;;;;;;27.33;17.97;;;;;;;5.52;100.00;99948.00;5088757;28;20272;-79
2022/12/01 10:28:58;;;;;;;27.60;16.90;;;;;;;5.46;100.00;99935.03;5087153;28;20196;-80
2022/12/01 10:31:35;;;;;;;26.40;16.90;;;;;;;5.43;100.00;99943.88;5089248;28;20638;-80
2022/12/01 10:34:10;;;;;;;26.90;16.40;;;;;;;5.44;100.00;99950.88;5087917;28;20187;-80
2022/12/01 10:36:39;;;;;;;28.20;16.57;;;;;;;5.49;100.00;99932.31;5085819;28;20200;-80
2022/12/01 10:39:17;;;;;;;30.77;19.57;;;;;;;5.51;100.00;99935.78;5086346;28;20203;-80
2022/12/01 10:41:49;;;;;;;28.97;17.57;;;;;;;5.60;100.00;99926.75;5001842;28;20324;-80
2022/12/01 10:44:19;;;;;;;27.37;17.37;;;;;;;5.50;100.00;99923.56;5009315;28;20206;-80
2022/12/01 10:46:53;;;;;;;25.77;16.43;;;;;;;5.39;100.00;99923.00;5006957;28;20222;-80
2022/12/01 10:49:38;;;;;;;26.37;15.77;;;;;;;5.39;100.00;99918.59;5007091;28;20202;-80
2022/12/01 10:52:08;;;;;;;25.47;15.97;;;;;;;5.23;100.00;99920.00;5008444;28;20352;-79
2022/12/01 10:54:40;;;;;;;24.13;15.67;;;;;;;5.30;100.00;99908.38;5009865;28;20191;-79
2022/12/01 10:57:17;;;;;;;24.73;15.37;;;;;;;5.49;100.00;99913.06;5010134;28;20194;-79
2022/12/01 10:59:52;;;;;;;26.17;16.63;;;;;;;5.32;100.00;99910.97;5038601;28;20191;-80
2022/12/01 11:02:22;;;;;;;26.40;16.00;;;;;;;5.45;100.00;99907.06;5090215;28;20199;-80
2022/12/01 11:04:54;;;;;;;22.77;14.57;;;;;;;5.50;100.00;99905.16;5095112;27;20207;-79
2022/12/01 11:07:27;;;;;;;25.27;15.77;;;;;;;5.44;100.00;99903.56;5090893;28;20227;-80
2022/12/01 11:10:17;;;;;;;24.67;15.73;;;;;;;5.55;100.00;99907.63;5088301;28;20261;-80
2022/12/01 11:12:54;;;;;;;25.63;16.60;;;;;;;5.60;100.00;99898.72;5091745;28;20191;-80
2022/12/01 11:15:25;;;;;;;26.47;17.27;;;;;;;5.68;100.00;99901.06;5054804;28;20203;-80
2022/12/01 11:18:00;;;;;;;24.90;15.97;;;;;;;5.46;100.00;99899.13;5088752;28;20298;-80
2022/12/01 11:20:32;;;;;;;23.43;15.87;;;;;;;5.32;100.00;99892.59;5090763;28;20188;-80
2022/12/01 11:26:16;;;;;;;26.10;15.87;;;;;;;5.47;100.00;99898.22;5092212;28;20249;-79
2022/12/01 11:28:53;;;;;;;25.23;15.77;;;;;;;5.68;100.00;99888.78;5093507;28;20323;-79
2022/12/01 11:31:24;;;;;;;23.40;14.97;;;;;;;5.65;100.00;99888.88;5093926;28;20664;-79
2022/12/01 11:33:54;;;;;;;22.53;14.17;;;;;;;5.51;100.00;99888.50;5085336;28;20199;-79
2022/12/01 11:36:28;;;;;;;23.83;15.40;;;;;;;5.54;100.00;99885.75;5089242;28;20225;-80
2022/12/01 11:39:01;;;;;;;23.63;15.23;;;;;;;5.30;100.00;99887.38;5090866;28;20195;-79
2022/12/01 11:41:36;;;;;;;22.63;14.87;;;;;;;5.38;100.00;99889.75;5093719;28;20253;-80
2022/12/01 11:44:15;;;;;;;22.30;14.23;;;;;;;5.40;100.00;99887.94;5090430;28;20195;-79
2022/12/01 11:47:14;;;;;;;24.73;15.83;;;;;;;5.39;100.00;99889.72;5090533;28;20265;-79
2022/12/01 11:49:56;;;;;;;23.20;15.40;;;;;;;5.28;100.00;99889.19;5089221;28;20204;-80